createdAt,value
2023-01-27T00:04:23.174Z,1.30
2023-01-27T00:09:25.551Z,1.30
2023-01-27T00:14:27.989Z,1.30
2023-01-27T00:19:30.340Z,1.20
2023-01-27T00:24:38.587Z,1.20
2023-01-27T00:29:41.044Z,1.20
2023-01-27T00:34:43.354Z,1.20
2023-01-27T00:39:45.691Z,1.30
2023-01-27T00:45:06.521Z,1.30
2023-01-27T00:50:09.480Z,1.30
2023-01-27T00:55:12.806Z,1.30
2023-01-27T01:00:16.072Z,1.30
2023-01-27T01:05:18.553Z,1.30
2023-01-27T01:10:20.909Z,1.70
2023-01-27T01:15:23.267Z,1.30
2023-01-27T01:20:27.059Z,1.40
2023-01-27T01:25:29.461Z,2.30
2023-01-27T01:30:34.079Z,1.20
2023-01-27T01:35:38.442Z,1.20
2023-01-27T01:40:43.161Z,1.20
2023-01-27T01:45:47.460Z,1.20
2023-01-27T01:50:57.522Z,1.70
2023-01-27T01:56:06.093Z,1.30
2023-01-27T02:01:08.709Z,1.20
2023-01-27T02:06:12.087Z,1.20
2023-01-27T02:11:14.664Z,1.20
2023-01-27T02:16:17.157Z,1.10
2023-01-27T02:21:19.873Z,1.10
2023-01-27T02:26:25.850Z,1.10
2023-01-27T02:31:28.386Z,1.10
2023-01-27T02:36:34.481Z,1.10
2023-01-27T02:41:47.825Z,1.00
2023-01-27T02:46:50.687Z,1.00
2023-01-27T02:51:53.332Z,1.30
2023-01-27T02:56:55.779Z,1.00
2023-01-27T03:02:00.732Z,1.00
2023-01-27T03:07:04.558Z,0.90
2023-01-27T03:12:22.102Z,0.90
2023-01-27T03:17:43.057Z,0.90
2023-01-27T03:22:45.709Z,0.90
2023-01-27T03:27:49.404Z,0.90
2023-01-27T03:32:59.323Z,0.80
2023-01-27T03:38:42.703Z,0.90
2023-01-27T03:44:04.010Z,0.90
2023-01-27T03:49:06.421Z,0.90
2023-01-27T03:54:09.881Z,0.90
2023-01-27T03:59:12.271Z,0.80
2023-01-27T04:04:33.368Z,0.80
2023-01-27T04:09:36.562Z,0.80
2023-01-27T04:14:43.302Z,0.80
2023-01-27T04:19:46.473Z,1.00
2023-01-27T04:24:50.299Z,0.90
2023-01-27T04:29:52.671Z,0.90
2023-01-27T04:34:55.001Z,0.90
2023-01-27T04:39:57.369Z,0.90
2023-01-27T04:44:59.978Z,0.90
2023-01-27T04:50:02.289Z,0.90
2023-01-27T04:55:04.818Z,0.90
2023-01-27T05:00:08.410Z,0.90
2023-01-27T05:05:10.789Z,0.90
2023-01-27T05:10:13.205Z,0.90
2023-01-27T05:15:15.736Z,0.90
2023-01-27T05:20:18.173Z,0.90
2023-01-27T05:25:20.479Z,0.90
2023-01-27T05:30:23.065Z,0.90
2023-01-27T05:35:25.377Z,0.90
2023-01-27T05:40:27.864Z,0.90
2023-01-27T05:45:30.186Z,0.80
2023-01-27T05:50:32.531Z,0.90
2023-01-27T05:55:34.917Z,0.90
2023-01-27T06:00:37.238Z,0.80
2023-01-27T06:05:39.778Z,0.90
2023-01-27T06:10:42.428Z,0.80
2023-01-27T06:15:46.514Z,0.80
2023-01-27T06:20:49.198Z,0.80
2023-01-27T06:25:51.568Z,0.80
2023-01-27T06:30:53.942Z,0.80
2023-01-27T06:36:01.650Z,1.50
2023-01-27T06:41:04.519Z,0.80
2023-01-27T06:46:06.979Z,0.80
2023-01-27T06:51:09.355Z,1.10
2023-01-27T06:56:11.751Z,0.80
2023-01-27T07:01:14.162Z,0.80
2023-01-27T07:06:19.054Z,0.80
2023-01-27T07:11:22.908Z,0.50
2023-01-27T07:16:25.266Z,0.80
2023-01-27T07:21:27.724Z,0.80
2023-01-27T07:26:30.080Z,0.80
2023-01-27T07:31:33.940Z,0.90
2023-01-27T07:36:36.371Z,1.40
2023-01-27T07:41:38.741Z,0.90
2023-01-27T07:46:41.043Z,0.90
2023-01-27T07:51:43.369Z,1.00
2023-01-27T07:56:45.697Z,1.00
2023-01-27T08:01:48.448Z,1.00
2023-01-27T08:06:50.983Z,1.00
2023-01-27T08:11:53.458Z,1.00
2023-01-27T08:16:55.822Z,1.00
2023-01-27T08:21:58.116Z,1.00
2023-01-27T08:27:00.411Z,1.10
2023-01-27T08:32:05.926Z,1.20
2023-01-27T08:37:08.932Z,1.40
2023-01-27T08:42:11.368Z,1.40
2023-01-27T08:47:13.792Z,1.40
2023-01-27T08:52:16.167Z,1.40
2023-01-27T08:57:18.731Z,1.40
2023-01-27T09:02:22.536Z,1.40
2023-01-27T09:07:24.911Z,1.40
2023-01-27T09:12:27.245Z,1.40
2023-01-27T09:17:29.631Z,1.50
2023-01-27T09:22:31.995Z,1.40
2023-01-27T09:27:39.627Z,1.40
2023-01-27T09:32:42.914Z,1.30
2023-01-27T09:37:56.759Z,1.40
2023-01-27T09:43:26.333Z,1.30
2023-01-27T09:48:36.891Z,1.40
2023-01-27T09:53:42.377Z,1.40
2023-01-27T09:59:12.818Z,1.30
2023-01-27T10:04:48.854Z,1.40
2023-01-27T10:10:06.091Z,1.40
2023-01-27T10:15:39.523Z,1.40
2023-01-27T10:20:52.657Z,1.40
2023-01-27T10:26:22.413Z,1.40
2023-01-27T10:31:35.930Z,1.40
2023-01-27T10:36:44.254Z,1.40
2023-01-27T10:42:17.611Z,1.30
2023-01-27T10:47:41.521Z,1.40
2023-01-27T10:52:56.439Z,1.50
2023-01-27T10:58:20.681Z,1.50
2023-01-27T11:03:31.208Z,1.50
2023-01-27T11:08:36.710Z,1.60
2023-01-27T11:13:39.974Z,1.60
2023-01-27T11:18:46.736Z,1.60
2023-01-27T11:23:55.952Z,1.60
2023-01-27T11:29:01.376Z,1.70
2023-01-27T11:34:30.851Z,1.70
2023-01-27T11:39:34.179Z,1.60
2023-01-27T11:44:37.007Z,1.50
2023-01-27T11:49:44.856Z,1.60
2023-01-27T11:55:07.574Z,1.50
2023-01-27T12:00:19.830Z,1.50
2023-01-27T12:05:30.727Z,1.60
2023-01-27T12:10:40.207Z,1.60
2023-01-27T12:15:54.481Z,1.60
2023-01-27T12:21:06.630Z,1.70
2023-01-27T12:26:11.936Z,1.60
2023-01-27T12:31:42.493Z,1.80
2023-01-27T12:36:45.361Z,2.70
2023-01-27T12:41:47.861Z,1.90
2023-01-27T12:47:03.114Z,2.00
2023-01-27T12:52:09.831Z,1.70
2023-01-27T12:57:19.708Z,1.70
2023-01-27T13:02:32.437Z,1.70
2023-01-27T13:07:53.753Z,1.70
2023-01-27T13:12:58.463Z,1.70
2023-01-27T13:18:13.600Z,1.70
2023-01-27T13:23:21.249Z,1.70
2023-01-27T13:28:39.703Z,1.70
2023-01-27T13:33:53.237Z,1.80
2023-01-27T13:39:14.817Z,1.90
2023-01-27T13:44:32.033Z,2.10
2023-01-27T13:50:13.909Z,1.80
2023-01-27T13:55:18.542Z,1.80
2023-01-27T14:00:27.433Z,1.70
2023-01-27T14:05:56.471Z,1.80
2023-01-27T14:11:04.578Z,1.80
2023-01-27T14:16:15.788Z,1.70
2023-01-27T14:21:41.467Z,1.80
2023-01-27T14:27:08.214Z,1.80
2023-01-27T14:32:32.774Z,1.80
2023-01-27T14:37:52.705Z,1.80
2023-01-27T14:43:16.301Z,1.70
2023-01-27T14:48:45.976Z,1.70
2023-01-27T14:54:13.625Z,1.70
2023-01-27T14:59:25.041Z,1.70
2023-01-27T15:05:16.730Z,1.70
2023-01-27T15:10:24.272Z,1.60
2023-01-27T15:15:33.549Z,1.60
2023-01-27T15:20:46.683Z,1.60
2023-01-27T15:25:55.678Z,1.60
2023-01-27T15:31:16.834Z,1.60
2023-01-27T15:36:28.148Z,1.60
2023-01-27T15:41:32.769Z,1.60
2023-01-27T15:46:37.452Z,1.50
2023-01-27T15:51:40.001Z,1.50
2023-01-27T15:56:53.127Z,1.50
2023-01-27T16:02:16.487Z,1.50
2023-01-27T16:07:33.025Z,1.50
2023-01-27T16:12:38.066Z,1.50
2023-01-27T16:17:59.264Z,1.50
2023-01-27T16:23:11.324Z,1.60
2023-01-27T16:28:16.937Z,1.60
2023-01-27T16:33:25.304Z,1.60
2023-01-27T16:38:33.736Z,1.60
2023-01-27T16:44:02.434Z,1.60
2023-01-27T16:49:27.709Z,1.60
2023-01-27T16:54:36.166Z,1.60
2023-01-27T16:59:39.835Z,1.80
2023-01-27T17:04:53.941Z,1.60
2023-01-27T17:09:58.255Z,1.60
2023-01-27T17:15:02.528Z,1.60
2023-01-27T17:20:06.900Z,1.60
2023-01-27T17:25:23.829Z,1.60
2023-01-27T17:30:33.479Z,1.60
2023-01-27T17:35:37.764Z,1.60
2023-01-27T17:40:43.555Z,2.10
2023-01-27T17:45:47.528Z,1.60
2023-01-27T17:50:50.073Z,1.50
2023-01-27T17:55:53.732Z,1.50
2023-01-27T18:00:56.509Z,1.30
2023-01-27T18:05:59.115Z,1.30
2023-01-27T18:11:50.616Z,1.20
2023-01-27T18:17:19.748Z,1.20
2023-01-27T18:22:26.088Z,1.20
2023-01-27T18:27:35.177Z,1.10
2023-01-27T18:32:44.826Z,1.10
2023-01-27T18:38:18.800Z,1.00
2023-01-27T18:43:21.104Z,1.00
2023-01-27T18:48:23.454Z,1.00
2023-01-27T18:53:25.781Z,1.00
2023-01-27T18:58:28.113Z,0.90
2023-01-27T19:03:34.538Z,0.90
2023-01-27T19:08:39.567Z,0.90
2023-01-27T19:13:45.811Z,0.90
2023-01-27T19:18:48.167Z,0.80
2023-01-27T19:23:50.592Z,0.80
2023-01-27T19:28:55.919Z,0.70
2023-01-27T19:33:58.325Z,0.70
2023-01-27T19:39:08.530Z,0.60
2023-01-27T19:44:11.004Z,0.60
2023-01-27T19:49:18.143Z,0.50
2023-01-27T19:54:20.570Z,0.50
2023-01-27T19:59:22.981Z,0.60
2023-01-27T20:04:26.619Z,0.50
2023-01-27T20:09:29.015Z,0.50
2023-01-27T20:14:31.984Z,0.50
2023-01-27T20:19:34.412Z,0.40
2023-01-27T20:24:36.743Z,0.30
2023-01-27T20:29:39.727Z,0.30
2023-01-27T20:34:42.063Z,0.30
2023-01-27T20:39:44.532Z,0.20
2023-01-27T20:44:46.886Z,0.20
2023-01-27T20:49:49.276Z,0.10
2023-01-27T20:54:54.987Z,0.10
2023-01-27T20:59:58.923Z,0.10
2023-01-27T21:05:01.268Z,0.00
2023-01-27T21:10:04.596Z,0.10
2023-01-27T21:15:09.924Z,0.10
2023-01-27T21:20:13.505Z,0.10
2023-01-27T21:25:16.342Z,0.00
2023-01-27T21:30:18.906Z,0.00
2023-01-27T21:35:21.299Z,0.10
2023-01-27T21:40:24.089Z,0.00
2023-01-27T21:45:26.438Z,0.00
2023-01-27T21:50:28.903Z,0.00
2023-01-27T21:55:31.226Z,-0.10
2023-01-27T22:00:33.674Z,-0.10
2023-01-27T22:05:39.214Z,-0.10
2023-01-27T22:10:41.639Z,0.30
2023-01-27T22:15:50.564Z,-0.10
2023-01-27T22:20:53.074Z,-0.20
2023-01-27T22:25:55.553Z,-0.10
2023-01-27T22:31:01.792Z,-0.20
2023-01-27T22:36:05.349Z,-0.20
2023-01-27T22:41:07.770Z,-0.20
2023-01-27T22:46:10.219Z,-0.20
2023-01-27T22:51:12.513Z,-0.20
2023-01-27T22:56:14.816Z,-0.20
2023-01-27T23:01:17.187Z,-0.20
2023-01-27T23:06:19.602Z,-0.30
2023-01-27T23:11:21.961Z,-0.30
2023-01-27T23:16:24.352Z,0.00
2023-01-27T23:21:27.151Z,-0.30
2023-01-27T23:26:29.601Z,-0.30
2023-01-27T23:31:32.054Z,-0.30
2023-01-27T23:36:34.625Z,-0.30
2023-01-27T23:41:36.986Z,-0.30
2023-01-27T23:46:39.580Z,-0.30
2023-01-27T23:51:41.915Z,-0.30
2023-01-27T23:56:45.768Z,-0.30
